Time;durP1;ratioP1;P1;durP2;ratioP2;P2;SDS_P1;SDS_P2;PMS_P1;PMS_P2;Temp;Humidity;BMP_temperature;BMP_pressure;BME280_temperature;BME280_humidity;BME280_pressure;Samples;Min_cycle;Max_cycle;Signal;HPM_P1;HPM_P2
2022/02/21 00:00:03;;;;;;;2.30;1.30;;;;;;;5.42;75.25;95575.30;107981;1268;32403;-82
2022/02/21 00:02:56;;;;;;;1.90;1.10;;;;;;;5.41;75.23;95578.05;106367;1270;2141625;-82
2022/02/21 00:05:27;;;;;;;0.90;0.70;;;;;;;5.41;75.22;95570.95;107898;1270;94317;-82
2022/02/21 00:08:01;;;;;;;2.00;0.60;;;;;;;5.55;75.21;95561.47;106467;1268;2077887;-82
2022/02/21 00:10:32;;;;;;;1.40;1.10;;;;;;;5.66;74.69;95559.63;107699;1268;133297;-82
2022/02/21 00:13:03;;;;;;;1.40;0.90;;;;;;;5.74;74.35;95560.14;107812;1268;168573;-82
2022/02/21 00:15:34;;;;;;;2.60;1.20;;;;;;;5.82;74.13;95551.73;107877;1270;142603;-82
2022/02/21 00:18:06;;;;;;;2.50;1.30;;;;;;;5.85;73.90;95538.35;107825;1270;173927;-82
2022/02/21 00:20:37;;;;;;;1.10;1.00;;;;;;;5.89;73.58;95541.44;107973;1270;30658;-83
2022/02/21 00:23:08;;;;;;;2.70;1.30;;;;;;;5.94;73.54;95527.17;107920;1270;111307;-82
2022/02/21 00:25:41;;;;;;;2.90;1.40;;;;;;;5.93;73.41;95515.18;107983;1270;40460;-82
2022/02/21 00:28:12;;;;;;;2.20;1.40;;;;;;;5.91;73.34;95506.83;107926;1270;33193;-82
2022/02/21 00:30:43;;;;;;;2.80;1.10;;;;;;;5.89;73.27;95501.59;108041;1268;35860;-82
2022/02/21 00:33:14;;;;;;;1.50;0.70;;;;;;;5.89;73.18;95503.86;106762;1268;1588961;-83
2022/02/21 00:35:45;;;;;;;2.20;1.30;;;;;;;5.95;73.14;95485.07;107931;1268;150378;-82
2022/02/21 00:38:16;;;;;;;1.60;1.40;;;;;;;6.00;72.65;95482.75;106487;1268;2110124;-82
2022/02/21 00:40:47;;;;;;;4.00;1.10;;;;;;;6.04;72.20;95473.25;108000;1267;74515;-82
2022/02/21 00:43:18;;;;;;;4.20;1.30;;;;;;;6.08;72.03;95466.80;106406;1270;2058506;-82
2022/02/21 00:45:49;;;;;;;3.20;1.10;;;;;;;6.05;71.78;95454.52;107875;1268;198664;-83
2022/02/21 00:48:21;;;;;;;3.10;1.20;;;;;;;6.12;71.72;95459.77;106776;1268;1483241;-81
2022/02/21 00:50:53;;;;;;;2.60;1.50;;;;;;;6.18;71.57;95452.70;107884;1267;133098;-81
2022/02/21 00:53:23;;;;;;;2.60;1.40;;;;;;;6.16;71.54;95440.30;106590;1268;1922698;-82
2022/02/21 00:55:55;;;;;;;2.60;1.30;;;;;;;6.13;71.00;95433.91;107944;1270;46178;-82
2022/02/21 00:58:26;;;;;;;3.10;0.90;;;;;;;6.18;71.23;95427.91;106589;1268;1755215;-82
2022/02/21 01:00:57;;;;;;;2.40;1.80;;;;;;;6.10;71.11;95438.38;108003;1268;39395;-82
2022/02/21 01:03:29;;;;;;;2.10;1.50;;;;;;;5.99;71.24;95425.11;107894;1269;191812;-82
2022/02/21 01:06:00;;;;;;;3.30;1.70;;;;;;;5.98;71.12;95418.43;107896;1268;116249;-82
2022/02/21 01:08:31;;;;;;;2.20;0.90;;;;;;;5.97;71.09;95417.66;107967;1269;33807;-81
2022/02/21 01:11:02;;;;;;;1.90;1.00;;;;;;;6.01;71.13;95408.61;107840;1268;217615;-82
2022/02/21 01:13:33;;;;;;;2.10;1.60;;;;;;;6.05;71.07;95411.58;107582;1268;172866;-81
2022/02/21 01:16:06;;;;;;;1.20;0.80;;;;;;;6.00;71.21;95406.05;107740;1269;170280;-82
2022/02/21 01:18:36;;;;;;;1.90;1.30;;;;;;;6.05;70.85;95405.27;106288;1269;2091769;-82
2022/02/21 01:21:08;;;;;;;2.50;1.50;;;;;;;6.14;70.55;95393.91;107882;1268;100177;-82
2022/02/21 01:23:40;;;;;;;3.00;1.70;;;;;;;6.15;70.47;95389.74;105076;1269;2019326;-82
2022/02/21 01:26:11;;;;;;;2.60;1.50;;;;;;;6.17;69.97;95369.78;107827;1269;122722;-82
2022/02/21 01:28:42;;;;;;;1.40;1.10;;;;;;;6.33;69.62;95379.44;107911;1269;41142;-83
2022/02/21 01:31:14;;;;;;;2.60;1.70;;;;;;;6.30;69.37;95377.67;107764;1269;191713;-82
2022/02/21 01:33:45;;;;;;;2.10;0.70;;;;;;;6.27;69.35;95365.09;107791;1270;186572;-81
2022/02/21 01:36:16;;;;;;;4.90;1.10;;;;;;;6.33;68.42;95361.11;106327;1268;2095760;-81
2022/02/21 01:38:47;;;;;;;2.30;1.10;;;;;;;6.45;68.08;95358.86;107918;1270;101658;-82
2022/02/21 01:41:21;;;;;;;2.10;1.20;;;;;;;6.54;67.25;95346.70;107915;1267;156212;-82
2022/02/21 01:44:03;;;;;;;1.40;1.00;;;;;;;6.59;67.05;95345.77;107843;1268;216486;-82
2022/02/21 01:46:34;;;;;;;1.80;0.80;;;;;;;6.56;66.76;95333.98;107166;1268;1191044;-84
2022/02/21 01:49:07;;;;;;;1.40;1.00;;;;;;;6.61;66.27;95335.61;105047;1267;2037654;-83
2022/02/21 01:51:40;;;;;;;1.90;1.10;;;;;;;6.64;65.84;95328.58;107993;1269;56664;-81
2022/02/21 01:54:14;;;;;;;2.30;1.20;;;;;;;6.69;65.47;95317.42;107871;1269;36802;-83
2022/02/21 01:56:45;;;;;;;1.90;1.20;;;;;;;6.70;65.18;95318.47;107742;1269;180702;-82
2022/02/21 01:59:16;;;;;;;2.20;1.30;;;;;;;6.71;65.09;95296.85;107750;1269;130747;-82
2022/02/21 02:01:48;;;;;;;1.70;1.20;;;;;;;6.66;65.35;95300.62;107667;1269;124370;-82
2022/02/21 02:04:19;;;;;;;1.30;1.00;;;;;;;6.62;65.38;95290.84;107785;1267;109468;-83
2022/02/21 02:06:51;;;;;;;1.10;1.00;;;;;;;6.58;65.14;95281.52;107617;1268;119613;-82
2022/02/21 02:09:22;;;;;;;1.80;1.20;;;;;;;6.56;65.31;95284.80;107477;1268;147793;-83
2022/02/21 02:11:53;;;;;;;1.70;1.10;;;;;;;6.53;65.40;95276.92;107623;1268;137424;-83
2022/02/21 02:14:32;;;;;;;2.30;1.40;;;;;;;6.54;65.31;95275.39;106199;1268;1990454;-82
2022/02/21 02:17:08;;;;;;;1.00;0.70;;;;;;;6.53;65.27;95261.94;107793;1268;168709;-82
2022/02/21 02:19:41;;;;;;;3.00;1.40;;;;;;;6.50;65.34;95261.71;107942;1269;45958;-83
2022/02/21 02:22:17;;;;;;;2.00;1.10;;;;;;;6.38;65.94;95255.23;107983;1270;42452;-82
2022/02/21 02:24:51;;;;;;;2.60;1.40;;;;;;;6.30;66.23;95245.61;108006;1268;62953;-82
2022/02/21 02:27:23;;;;;;;2.90;1.40;;;;;;;6.21;66.42;95249.11;107993;1269;35953;-81
2022/02/21 02:29:56;;;;;;;1.60;1.00;;;;;;;6.17;66.74;95232.05;107409;1269;223716;-82
2022/02/21 02:32:27;;;;;;;3.40;1.40;;;;;;;6.25;66.66;95230.90;106134;1268;2560211;-82
2022/02/21 02:34:58;;;;;;;2.80;1.90;;;;;;;6.24;66.80;95231.34;104873;1267;2133656;-82
2022/02/21 02:37:29;;;;;;;2.70;1.70;;;;;;;6.14;66.89;95232.99;106435;1268;1982853;-82
2022/02/21 02:40:01;;;;;;;2.00;1.50;;;;;;;6.18;66.93;95218.66;107527;1270;160122;-82
2022/02/21 02:42:32;;;;;;;1.50;1.10;;;;;;;6.20;67.03;95221.18;106890;1268;1508593;-81
2022/02/21 02:45:03;;;;;;;1.70;1.10;;;;;;;6.31;66.97;95211.34;108033;1267;65150;-82
2022/02/21 02:47:34;;;;;;;5.20;1.10;;;;;;;6.42;66.70;95201.64;107997;1270;34341;-83
2022/02/21 02:50:06;;;;;;;2.30;0.80;;;;;;;6.53;66.11;95199.12;107881;1269;90475;-82
2022/02/21 02:52:37;;;;;;;1.90;0.90;;;;;;;6.59;66.03;95192.30;106977;1267;1229286;-83
2022/02/21 02:55:10;;;;;;;1.90;1.50;;;;;;;6.66;65.81;95181.18;107752;1268;95265;-83
2022/02/21 02:57:41;;;;;;;1.50;1.20;;;;;;;6.65;65.75;95191.41;107648;1270;138515;-83
2022/02/21 03:00:14;;;;;;;4.40;1.50;;;;;;;6.63;65.50;95182.81;107519;1269;161338;-82
2022/02/21 03:02:47;;;;;;;3.00;1.70;;;;;;;6.62;65.49;95185.46;106631;1269;1779329;-82
2022/02/21 03:05:18;;;;;;;1.20;1.10;;;;;;;6.45;65.70;95197.59;108063;1269;36028;-83
2022/02/21 03:07:49;;;;;;;1.60;1.20;;;;;;;6.36;66.21;95195.16;107830;1268;223044;-82
2022/02/21 03:10:20;;;;;;;3.10;1.10;;;;;;;6.30;66.50;95191.77;107682;1269;184435;-81
2022/02/21 03:12:51;;;;;;;1.00;0.90;;;;;;;6.31;66.42;95196.44;106550;1268;1974070;-81
2022/02/21 03:15:22;;;;;;;1.80;1.30;;;;;;;6.41;66.42;95194.09;107986;1269;34009;-82
2022/02/21 03:17:53;;;;;;;1.40;0.90;;;;;;;6.46;66.41;95187.20;107910;1268;92602;-82
2022/02/21 03:20:24;;;;;;;1.10;0.70;;;;;;;6.46;66.42;95186.83;105241;1269;2201066;-82
2022/02/21 03:22:55;;;;;;;2.40;1.20;;;;;;;6.46;66.46;95188.09;107715;1268;137597;-82
2022/02/21 03:25:26;;;;;;;1.90;1.30;;;;;;;6.42;66.69;95181.85;104700;1268;2508941;-83
2022/02/21 03:27:57;;;;;;;2.50;1.10;;;;;;;6.40;66.88;95189.41;108058;1267;35498;-83
2022/02/21 03:30:28;;;;;;;1.30;1.00;;;;;;;6.47;66.85;95192.66;106254;1268;2449547;-81
2022/02/21 03:33:00;;;;;;;2.30;0.80;;;;;;;6.66;66.68;95181.65;107976;1268;127040;-82
2022/02/21 03:35:33;;;;;;;0.80;0.70;;;;;;;6.73;66.47;95194.42;107980;1268;129771;-83
2022/02/21 03:38:04;;;;;;;3.10;1.30;;;;;;;6.74;66.43;95184.52;105574;1271;1792151;-82
2022/02/21 03:40:38;;;;;;;1.80;1.20;;;;;;;6.75;66.48;95190.92;108096;1268;31913;-83
2022/02/21 03:43:11;;;;;;;3.00;1.40;;;;;;;6.74;66.40;95187.98;107152;1270;1268159;-82
2022/02/21 03:45:42;;;;;;;1.00;0.70;;;;;;;6.74;66.32;95185.35;106905;1268;1529402;-83
2022/02/21 03:48:16;;;;;;;1.10;0.70;;;;;;;6.75;66.54;95191.71;107920;1268;151609;-84
2022/02/21 03:50:48;;;;;;;1.40;1.10;;;;;;;6.76;66.64;95183.06;108090;1268;36583;-83
2022/02/21 03:53:19;;;;;;;3.00;1.60;;;;;;;6.81;66.89;95181.72;108082;1268;38911;-82
2022/02/21 03:55:50;;;;;;;2.10;1.10;;;;;;;6.78;66.98;95165.81;107769;1268;203591;-82
2022/02/21 03:58:21;;;;;;;1.60;0.60;;;;;;;6.74;67.29;95152.48;108034;1269;45980;-81
2022/02/21 04:00:57;;;;;;;0.90;0.70;;;;;;;6.71;67.64;95143.17;108023;1268;41207;-83
2022/02/21 04:03:33;;;;;;;1.30;0.90;;;;;;;6.74;67.39;95123.58;106568;1268;2003727;-84
2022/02/21 04:06:03;;;;;;;3.40;0.90;;;;;;;6.82;67.14;95107.55;108091;1270;44652;-81
2022/02/21 04:08:35;;;;;;;2.10;0.90;;;;;;;6.85;66.95;95104.88;106531;1270;1966190;-82
2022/02/21 04:11:06;;;;;;;2.40;2.10;;;;;;;6.81;66.93;95096.69;106823;1268;1543444;-82
2022/02/21 04:13:38;;;;;;;1.00;0.80;;;;;;;6.75;67.27;95084.05;107962;1268;33716;-83
2022/02/21 04:16:10;;;;;;;5.60;3.80;;;;;;;6.77;67.38;95078.70;107925;1269;150870;-82
2022/02/21 04:18:43;;;;;;;2.20;1.30;;;;;;;6.78;67.01;95075.05;107983;1268;55913;-82
2022/02/21 04:21:14;;;;;;;7.20;4.80;;;;;;;6.78;67.16;95077.94;107825;1268;183788;-83
2022/02/21 04:23:45;;;;;;;1.60;1.10;;;;;;;6.77;67.26;95073.75;107961;1269;113636;-82
2022/02/21 04:26:16;;;;;;;2.10;1.20;;;;;;;6.76;67.73;95076.88;108003;1268;34210;-83
2022/02/21 04:28:48;;;;;;;1.20;1.10;;;;;;;6.78;68.10;95068.42;106784;1269;1526506;-82
2022/02/21 04:31:19;;;;;;;2.90;1.40;;;;;;;6.71;68.68;95059.21;106618;1268;2011354;-82
2022/02/21 04:33:50;;;;;;;1.60;1.10;;;;;;;6.60;69.05;95035.08;108118;1268;42912;-83
2022/02/21 04:36:22;;;;;;;1.20;0.80;;;;;;;6.54;69.37;94998.33;107990;1269;55512;-82
2022/02/21 04:38:53;;;;;;;1.80;1.00;;;;;;;6.52;69.39;94997.11;107059;1269;1228039;-82
2022/02/21 04:41:25;;;;;;;1.90;1.30;;;;;;;6.49;69.43;94982.58;106664;1269;1746790;-82
2022/02/21 04:43:56;;;;;;;1.30;1.00;;;;;;;6.51;68.88;95003.35;107926;1269;111165;-83
2022/02/21 04:46:27;;;;;;;1.20;0.80;;;;;;;6.57;68.61;95005.64;108021;1269;37286;-81
2022/02/21 04:48:58;;;;;;;4.20;1.40;;;;;;;6.62;68.29;94993.46;107906;1269;155633;-82
2022/02/21 04:51:29;;;;;;;2.40;1.20;;;;;;;6.61;68.33;94977.34;108106;1269;34471;-82
2022/02/21 04:54:01;;;;;;;1.90;1.10;;;;;;;6.62;68.30;94970.77;106520;1269;1791965;-82
2022/02/21 04:56:32;;;;;;;1.60;1.00;;;;;;;6.67;68.17;94955.65;107942;1269;34934;-82
2022/02/21 04:59:04;;;;;;;1.50;1.00;;;;;;;6.72;67.69;94939.45;107879;1268;151758;-82
2022/02/21 05:01:35;;;;;;;2.80;1.30;;;;;;;6.76;67.68;94935.73;108058;1269;36817;-83
2022/02/21 05:04:06;;;;;;;3.60;1.00;;;;;;;6.74;67.71;94942.33;108083;1269;36169;-83
2022/02/21 05:06:37;;;;;;;1.20;0.60;;;;;;;6.76;67.42;94932.51;106774;1268;1790417;-82
2022/02/21 05:09:08;;;;;;;2.10;1.30;;;;;;;6.77;67.21;94947.54;106392;1269;2122609;-82
2022/02/21 05:11:39;;;;;;;0.80;0.80;;;;;;;6.82;67.10;94942.01;107040;1268;1272586;-82
2022/02/21 05:14:10;;;;;;;1.30;1.00;;;;;;;6.82;67.13;94947.49;107977;1269;157157;-82
2022/02/21 05:16:41;;;;;;;1.20;1.00;;;;;;;6.83;67.22;94937.21;108005;1269;39626;-82
2022/02/21 05:19:12;;;;;;;1.70;1.10;;;;;;;6.82;66.95;94935.75;107878;1268;88851;-82
2022/02/21 05:21:45;;;;;;;0.80;0.80;;;;;;;6.85;66.78;94939.59;107900;1269;95824;-82
2022/02/21 05:24:18;;;;;;;1.90;1.20;;;;;;;6.87;66.87;94926.36;106669;1268;1847678;-82
2022/02/21 05:26:49;;;;;;;0.60;0.60;;;;;;;6.85;67.02;94923.72;108049;1268;37581;-81
2022/02/21 05:29:20;;;;;;;1.90;1.10;;;;;;;6.89;66.70;94903.41;107872;1269;191344;-81
2022/02/21 05:31:54;;;;;;;3.40;1.10;;;;;;;6.91;66.59;94895.28;106572;1269;1769222;-81
2022/02/21 05:34:25;;;;;;;1.70;1.00;;;;;;;6.95;66.35;94901.88;107813;1268;170200;-82
2022/02/21 05:36:57;;;;;;;4.00;1.50;;;;;;;6.89;66.51;94890.23;108004;1268;189633;-82
2022/02/21 05:39:28;;;;;;;2.00;1.30;;;;;;;6.87;66.60;94884.10;107578;1269;122072;-82
2022/02/21 05:41:59;;;;;;;1.50;1.10;;;;;;;6.86;66.41;94869.34;107687;1268;75533;-82
2022/02/21 05:44:30;;;;;;;1.70;1.40;;;;;;;6.89;66.35;94872.81;105385;1267;2034385;-82
2022/02/21 05:47:01;;;;;;;2.20;1.30;;;;;;;6.90;66.23;94855.71;106668;1268;1830587;-82
2022/02/21 05:49:32;;;;;;;1.50;1.30;;;;;;;6.93;66.06;94853.55;106440;1268;2093275;-83
2022/02/21 05:52:04;;;;;;;1.60;1.00;;;;;;;6.98;65.65;94856.48;107734;1268;176824;-82
2022/02/21 05:54:35;;;;;;;1.50;1.00;;;;;;;7.07;65.23;94864.02;107996;1268;126609;-82
2022/02/21 05:57:07;;;;;;;0.90;0.80;;;;;;;7.20;64.24;94838.06;107765;1268;203868;-82
2022/02/21 05:59:38;;;;;;;1.30;0.90;;;;;;;7.32;63.88;94855.34;107817;1269;153525;-81
2022/02/21 06:02:09;;;;;;;1.80;0.90;;;;;;;7.35;63.70;94867.23;106665;1269;1752640;-82
2022/02/21 06:04:40;;;;;;;2.30;1.30;;;;;;;7.40;63.29;94866.42;108016;1268;38565;-82
2022/02/21 06:07:14;;;;;;;0.70;0.50;;;;;;;7.48;63.10;94860.46;108040;1269;64165;-82
2022/02/21 06:09:46;;;;;;;1.70;0.80;;;;;;;7.55;62.44;94842.29;106045;1269;2518215;-82
2022/02/21 06:12:16;;;;;;;0.70;0.70;;;;;;;7.67;61.45;94836.73;106509;1269;2048528;-81
2022/02/21 06:14:48;;;;;;;1.00;0.70;;;;;;;7.81;60.78;94851.24;108073;1268;38813;-82
2022/02/21 06:17:21;;;;;;;1.70;0.90;;;;;;;7.88;60.89;94848.21;107791;1268;166157;-82
2022/02/21 06:19:54;;;;;;;1.80;0.90;;;;;;;7.91;60.65;94845.86;107939;1269;41280;-82
2022/02/21 06:22:25;;;;;;;1.00;0.50;;;;;;;7.93;60.32;94852.14;107931;1269;45133;-83
2022/02/21 06:24:56;;;;;;;1.80;1.00;;;;;;;7.93;60.27;94859.46;105207;1269;1842299;-82
2022/02/21 06:27:28;;;;;;;1.00;0.80;;;;;;;7.94;60.13;94862.44;106612;1269;1878022;-82
2022/02/21 06:30:02;;;;;;;0.80;0.60;;;;;;;7.96;59.49;94870.98;108005;1268;38471;-82
2022/02/21 06:32:33;;;;;;;3.20;1.20;;;;;;;7.96;59.52;94878.00;108041;1268;33081;-83
2022/02/21 06:35:04;;;;;;;1.40;1.10;;;;;;;7.95;59.73;94886.97;107784;1269;199316;-83
2022/02/21 06:37:40;;;;;;;1.90;1.20;;;;;;;7.93;59.74;94911.70;107911;1267;85107;-82
2022/02/21 06:40:13;;;;;;;4.30;0.80;;;;;;;7.95;59.51;94891.91;107970;1269;39115;-82
2022/02/21 06:42:45;;;;;;;2.00;1.30;;;;;;;7.98;59.20;94903.55;107826;1269;187388;-83
2022/02/21 06:45:17;;;;;;;0.40;0.40;;;;;;;8.00;59.15;94924.61;106959;1268;1498551;-82
2022/02/21 06:47:48;;;;;;;1.20;1.00;;;;;;;8.03;58.95;94909.18;107877;1269;158259;-81
2022/02/21 06:50:19;;;;;;;1.80;1.20;;;;;;;8.00;59.36;94921.29;108004;1269;43856;-82
2022/02/21 06:52:50;;;;;;;3.50;1.20;;;;;;;7.93;59.56;94924.68;108002;1269;101810;-82
2022/02/21 06:55:22;;;;;;;3.10;1.40;;;;;;;7.86;60.00;94936.89;108032;1267;52792;-81
2022/02/21 06:57:54;;;;;;;1.80;1.20;;;;;;;7.81;60.29;94947.20;106221;1269;1833770;-81
2022/02/21 07:00:26;;;;;;;2.50;1.00;;;;;;;7.76;60.69;94938.09;106712;1269;1303878;-83
2022/02/21 07:02:58;;;;;;;1.90;1.10;;;;;;;7.71;61.16;94954.70;107626;1269;112977;-81
2022/02/21 07:05:29;;;;;;;1.60;0.70;;;;;;;7.64;62.03;94938.06;107665;1267;111455;-81
2022/02/21 07:08:00;;;;;;;1.30;0.90;;;;;;;7.51;63.03;94931.23;107501;1269;162117;-83
2022/02/21 07:10:31;;;;;;;1.50;0.90;;;;;;;7.43;63.53;94933.52;107410;1269;251962;-81
2022/02/21 07:13:02;;;;;;;1.10;1.00;;;;;;;7.36;64.13;94936.44;107749;1269;97878;-82
2022/02/21 07:15:34;;;;;;;1.70;1.00;;;;;;;7.33;64.00;94945.89;106317;1269;2077485;-83
2022/02/21 07:18:05;;;;;;;1.80;1.30;;;;;;;7.38;64.02;94950.89;107642;1268;124189;-82
2022/02/21 07:20:37;;;;;;;2.70;1.10;;;;;;;7.35;64.48;94937.71;107626;1269;147848;-81
2022/02/21 07:23:08;;;;;;;1.50;0.90;;;;;;;7.33;64.74;94941.24;107532;1268;158951;-82
2022/02/21 07:25:39;;;;;;;2.30;1.00;;;;;;;7.28;65.54;94940.35;106219;1269;2162504;-81
2022/02/21 07:28:10;;;;;;;2.70;1.20;;;;;;;7.22;66.33;94945.09;107618;1269;245163;-82
2022/02/21 07:30:42;;;;;;;2.40;1.20;;;;;;;7.16;67.03;94935.75;106605;1269;1898315;-81
2022/02/21 07:33:13;;;;;;;1.40;0.70;;;;;;;7.13;67.92;94939.20;108021;1269;37643;-81
2022/02/21 07:35:47;;;;;;;1.70;0.60;;;;;;;7.02;69.08;94935.48;107956;1269;45735;-83
2022/02/21 07:38:18;;;;;;;2.80;0.80;;;;;;;7.00;69.06;94925.03;108004;1269;81626;-81
2022/02/21 07:40:49;;;;;;;2.40;1.00;;;;;;;7.02;69.63;94909.71;108099;1269;33920;-82
2022/02/21 07:43:20;;;;;;;1.20;0.80;;;;;;;6.96;70.34;94923.92;107920;1269;109223;-82
2022/02/21 07:45:51;;;;;;;2.00;1.20;;;;;;;6.90;70.54;94921.94;107880;1269;125747;-81
2022/02/21 07:48:22;;;;;;;1.50;0.60;;;;;;;6.89;70.94;94911.30;107176;1269;1488227;-81
2022/02/21 07:50:54;;;;;;;0.80;0.60;;;;;;;6.91;71.01;94930.14;107979;1269;44132;-81
2022/02/21 07:53:25;;;;;;;1.80;1.10;;;;;;;6.94;70.91;94921.27;107982;1269;32545;-80
2022/02/21 07:55:56;;;;;;;1.10;0.70;;;;;;;6.94;71.21;94896.30;107906;1269;93699;-81
2022/02/21 07:58:27;;;;;;;1.50;1.00;;;;;;;6.97;70.79;94898.52;107903;1267;105166;-81
2022/02/21 08:00:58;;;;;;;0.50;0.50;;;;;;;6.98;71.09;94889.31;106631;1268;1902830;-81
2022/02/21 08:03:29;;;;;;;1.00;0.50;;;;;;;6.99;70.59;94883.52;106072;1268;2575490;-81
2022/02/21 08:06:00;;;;;;;2.00;0.70;;;;;;;7.06;70.39;94877.06;107790;1268;174903;-80
2022/02/21 08:08:31;;;;;;;0.80;0.80;;;;;;;7.10;70.07;94886.30;107993;1269;65984;-80
2022/02/21 08:11:02;;;;;;;1.40;1.10;;;;;;;7.14;69.72;94891.58;108023;1268;32176;-80
2022/02/21 08:13:34;;;;;;;2.50;1.10;;;;;;;7.16;69.48;94900.44;108041;1269;36064;-81
2022/02/21 08:16:05;;;;;;;1.90;1.00;;;;;;;7.19;68.91;94913.25;107899;1269;125366;-81
2022/02/21 08:18:36;;;;;;;1.30;0.70;;;;;;;7.22;68.86;94904.87;107980;1269;32745;-78
2022/02/21 08:21:08;;;;;;;1.80;1.00;;;;;;;7.20;69.01;94900.48;107930;1269;64611;-79
2022/02/21 08:23:39;;;;;;;2.40;1.10;;;;;;;7.16;69.11;94912.98;107982;1269;34844;-79
2022/02/21 08:26:10;;;;;;;1.50;1.00;;;;;;;7.12;69.55;94921.55;107946;1269;88534;-80
2022/02/21 08:28:42;;;;;;;0.80;0.40;;;;;;;7.08;69.82;94909.80;107965;1269;82427;-80
2022/02/21 08:31:13;;;;;;;2.40;0.90;;;;;;;7.03;70.26;94903.90;107962;1267;74206;-78
2022/02/21 08:33:44;;;;;;;3.00;1.50;;;;;;;7.02;70.42;94910.55;107603;1269;32234;-80
2022/02/21 08:36:16;;;;;;;1.20;0.70;;;;;;;7.00;70.42;94911.77;108011;1268;40637;-79
2022/02/21 08:38:47;;;;;;;2.20;0.70;;;;;;;6.99;70.61;94908.89;107844;1268;178256;-80
2022/02/21 08:41:18;;;;;;;3.50;1.30;;;;;;;6.97;71.04;94917.10;107952;1268;174503;-81
2022/02/21 08:43:49;;;;;;;2.60;1.70;;;;;;;6.92;71.74;94918.06;107766;1268;167297;-82
2022/02/21 08:46:21;;;;;;;2.00;1.20;;;;;;;6.88;71.87;94922.88;108074;1268;95350;-81
2022/02/21 08:48:54;;;;;;;2.20;1.20;;;;;;;6.86;71.99;94930.23;107975;1269;91249;-81
2022/02/21 08:51:25;;;;;;;2.80;1.40;;;;;;;6.86;72.03;94924.96;107981;1269;38464;-83
2022/02/21 08:53:57;;;;;;;1.10;0.80;;;;;;;6.81;72.49;94919.66;107824;1267;170026;-82
2022/02/21 08:56:28;;;;;;;1.60;0.80;;;;;;;6.76;73.12;94924.96;107725;1270;109673;-82
2022/02/21 08:58:59;;;;;;;3.40;1.00;;;;;;;6.71;73.50;94930.64;107902;1269;122000;-82
2022/02/21 09:01:32;;;;;;;2.60;0.90;;;;;;;6.68;73.47;94915.55;107859;1269;175765;-83
2022/02/21 09:04:05;;;;;;;0.80;0.60;;;;;;;6.67;73.81;94922.77;106681;1268;1786792;-81
2022/02/21 09:06:39;;;;;;;2.20;0.90;;;;;;;6.68;74.29;94920.71;107956;1269;127835;-82
2022/02/21 09:09:10;;;;;;;1.30;0.80;;;;;;;6.65;74.61;94919.10;105607;1267;1775757;-83
2022/02/21 09:11:41;;;;;;;1.30;0.90;;;;;;;6.61;75.04;94923.64;107990;1269;33980;-82
2022/02/21 09:14:13;;;;;;;1.80;0.70;;;;;;;6.59;75.51;94892.81;107904;1269;121655;-82
2022/02/21 09:16:44;;;;;;;2.80;0.70;;;;;;;6.60;75.71;94911.96;104146;1269;2665636;-82
2022/02/21 09:19:15;;;;;;;0.80;0.30;;;;;;;6.51;76.63;94904.89;108062;1269;34599;-82
2022/02/21 09:21:47;;;;;;;0.90;0.40;;;;;;;6.41;77.25;94898.61;108080;1268;39661;-82
2022/02/21 09:24:18;;;;;;;0.50;0.40;;;;;;;6.35;77.70;94902.36;107886;1269;153841;-81
2022/02/21 09:26:49;;;;;;;0.30;0.30;;;;;;;6.35;78.16;94900.79;107763;1269;113622;-82
2022/02/21 09:29:21;;;;;;;0.90;0.50;;;;;;;6.37;78.21;94857.83;107724;1269;93570;-81
2022/02/21 09:31:52;;;;;;;0.40;0.40;;;;;;;6.40;78.25;94884.95;107658;1270;105969;-80
2022/02/21 09:34:23;;;;;;;1.70;0.30;;;;;;;6.40;78.42;94881.10;107923;1269;104170;-82
2022/02/21 09:36:55;;;;;;;0.90;0.50;;;;;;;6.42;78.85;94871.56;106464;1269;2062373;-82
2022/02/21 09:39:26;;;;;;;0.50;0.40;;;;;;;6.45;79.05;94870.66;107629;1268;168098;-81
2022/02/21 09:41:57;;;;;;;1.00;0.50;;;;;;;6.52;78.88;94855.15;106860;1269;1484912;-83
2022/02/21 09:44:28;;;;;;;0.20;0.20;;;;;;;6.68;78.41;94862.63;106359;1270;2085633;-82
2022/02/21 09:47:11;;;;;;;1.90;0.80;;;;;;;6.81;78.07;94862.77;108005;1269;34889;-82
2022/02/21 09:49:42;;;;;;;1.20;1.10;;;;;;;6.88;77.54;94850.48;106421;1269;2111397;-82
2022/02/21 09:52:13;;;;;;;1.80;1.00;;;;;;;6.93;77.37;94873.11;106858;1269;1504072;-82
2022/02/21 09:54:49;;;;;;;1.60;1.30;;;;;;;6.97;77.15;94855.65;107914;1269;130920;-83
2022/02/21 09:57:20;;;;;;;2.70;1.10;;;;;;;6.97;76.97;94852.83;105421;1269;1782045;-82
2022/02/21 09:59:53;;;;;;;5.70;1.70;;;;;;;6.94;76.64;94842.46;106011;1269;2559329;-81
2022/02/21 10:02:29;;;;;;;2.10;1.70;;;;;;;6.85;77.02;94852.77;107752;1269;203183;-81
2022/02/21 10:05:15;;;;;;;3.10;1.70;;;;;;;6.79;76.76;94842.95;105367;1269;2077876;-82
2022/02/21 10:07:47;;;;;;;3.40;2.30;;;;;;;6.71;76.73;94843.00;108058;1270;30767;-82
2022/02/21 10:10:21;;;;;;;2.70;2.00;;;;;;;6.67;76.75;94846.31;107989;1269;39181;-81
2022/02/21 10:12:55;;;;;;;4.90;2.50;;;;;;;6.62;76.76;94861.91;106517;1269;1986221;-84
2022/02/21 10:15:30;;;;;;;3.10;2.10;;;;;;;6.58;76.64;94843.59;106639;1269;1296061;-81
2022/02/21 10:18:15;;;;;;;2.30;1.90;;;;;;;6.54;76.59;94834.37;106329;1269;1802527;-80
2022/02/21 10:20:58;;;;;;;5.10;2.30;;;;;;;6.48;76.38;94845.83;107716;1270;143431;-81
2022/02/21 10:23:34;;;;;;;3.80;2.30;;;;;;;6.41;76.67;94857.48;104971;1271;2110937;-82
2022/02/21 10:26:08;;;;;;;3.40;2.50;;;;;;;6.39;76.81;94851.80;107512;1269;204801;-81
2022/02/21 10:28:41;;;;;;;3.30;2.00;;;;;;;6.39;77.02;94836.36;108033;1269;41088;-82
2022/02/21 10:31:19;;;;;;;3.10;1.80;;;;;;;6.40;76.68;94838.66;105922;1269;2559483;-81
2022/02/21 10:34:01;;;;;;;3.60;1.90;;;;;;;6.42;76.48;94834.09;107934;1270;162000;-81
2022/02/21 10:36:36;;;;;;;2.40;1.60;;;;;;;6.43;76.37;94838.59;108011;1270;37147;-82
2022/02/21 10:39:10;;;;;;;1.80;1.50;;;;;;;6.46;76.30;94846.20;107669;1269;176122;-82
2022/02/21 10:41:48;;;;;;;1.50;1.20;;;;;;;6.51;76.11;94846.70;106346;1269;1741140;-82
2022/02/21 10:44:23;;;;;;;2.50;1.40;;;;;;;6.56;75.40;94830.63;108020;1269;50711;-82
2022/02/21 10:47:07;;;;;;;2.60;1.20;;;;;;;6.63;74.79;94852.14;106344;1269;1841652;-82
2022/02/21 10:49:39;;;;;;;1.60;1.30;;;;;;;6.70;74.77;94849.09;107594;1269;118969;-82
2022/02/21 10:52:18;;;;;;;1.80;1.10;;;;;;;6.74;74.95;94862.42;107668;1269;92511;-81
2022/02/21 10:54:50;;;;;;;1.60;0.90;;;;;;;6.83;73.78;94852.50;107839;1268;122178;-82
2022/02/21 10:57:25;;;;;;;2.20;1.10;;;;;;;6.91;73.83;94850.16;107630;1269;130857;-81
2022/02/21 10:59:58;;;;;;;1.00;0.70;;;;;;;6.97;73.56;94833.90;107463;1269;227635;-82
2022/02/21 11:02:29;;;;;;;1.20;1.00;;;;;;;7.02;73.05;94832.10;107956;1268;76544;-81
2022/02/21 11:05:03;;;;;;;2.90;1.00;;;;;;;7.07;73.00;94841.73;107878;1269;98789;-82
2022/02/21 11:07:36;;;;;;;1.50;1.10;;;;;;;7.06;72.73;94837.81;106661;1269;1820886;-82
2022/02/21 11:10:08;;;;;;;1.20;1.00;;;;;;;7.02;72.68;94839.58;106564;1269;1776761;-82
2022/02/21 11:12:44;;;;;;;1.10;0.70;;;;;;;7.02;72.84;94846.70;107726;1269;199920;-81
2022/02/21 11:15:17;;;;;;;1.30;0.90;;;;;;;7.03;72.72;94847.30;107859;1269;147168;-81
2022/02/21 11:17:48;;;;;;;0.30;0.30;;;;;;;7.03;72.52;94854.52;108036;1269;60987;-82
2022/02/21 11:20:19;;;;;;;1.70;0.70;;;;;;;7.00;72.11;94852.05;107849;1271;195948;-82
2022/02/21 11:22:50;;;;;;;1.80;1.30;;;;;;;6.97;72.15;94856.83;107866;1269;147384;-81
2022/02/21 11:25:29;;;;;;;1.80;1.00;;;;;;;6.93;72.32;94857.40;106625;1268;1855731;-80
2022/02/21 11:28:05;;;;;;;1.60;1.10;;;;;;;6.91;72.24;94857.66;107955;1268;55305;-81
2022/02/21 11:30:36;;;;;;;1.60;1.00;;;;;;;6.94;72.36;94851.05;107827;1269;173626;-81
2022/02/21 11:33:11;;;;;;;1.30;0.80;;;;;;;7.00;72.44;94853.32;107810;1269;135975;-82
2022/02/21 11:39:26;;;;;;;1.20;0.70;;;;;;;7.09;71.93;94870.83;107666;1269;210530;-81
2022/02/21 11:42:16;;;;;;;0.90;0.60;;;;;;;7.10;71.48;94859.38;107950;1269;46549;-81
2022/02/21 11:44:50;;;;;;;0.90;0.90;;;;;;;7.11;71.66;94881.87;107925;1268;94904;-82
2022/02/21 11:47:39;;;;;;;1.00;0.80;;;;;;;7.08;71.63;94889.41;107886;1269;137882;-82
2022/02/21 11:50:26;;;;;;;2.20;1.20;;;;;;;7.04;71.76;94896.03;107814;1269;163288;-82
2022/02/21 11:53:01;;;;;;;1.20;0.90;;;;;;;6.96;72.03;94885.98;107984;1269;39569;-82